sensor_id;sensor_type;location;lat;lon;timestamp;P1;durP1;ratioP1;P2;durP2;ratioP2
68825;SDS011;55841;53.392;10.086;2022-08-25T00:01:29;10.43;;;3.60;;
68825;SDS011;55841;53.392;10.086;2022-08-25T00:03:57;10.60;;;3.63;;
68825;SDS011;55841;53.392;10.086;2022-08-25T00:06:24;9.50;;;3.53;;
68825;SDS011;55841;53.392;10.086;2022-08-25T00:08:50;10.68;;;3.47;;
68825;SDS011;55841;53.392;10.086;2022-08-25T00:11:20;11.50;;;3.88;;
68825;SDS011;55841;53.392;10.086;2022-08-25T00:13:49;12.15;;;3.88;;
68825;SDS011;55841;53.392;10.086;2022-08-25T00:16:17;11.07;;;3.85;;
68825;SDS011;55841;53.392;10.086;2022-08-25T00:18:45;11.15;;;3.78;;
68825;SDS011;55841;53.392;10.086;2022-08-25T00:21:13;12.82;;;4.07;;
68825;SDS011;55841;53.392;10.086;2022-08-25T00:23:39;9.68;;;3.58;;
68825;SDS011;55841;53.392;10.086;2022-08-25T00:26:06;11.75;;;4.22;;
68825;SDS011;55841;53.392;10.086;2022-08-25T00:28:33;11.70;;;3.80;;
68825;SDS011;55841;53.392;10.086;2022-08-25T00:33:24;10.32;;;3.90;;
68825;SDS011;55841;53.392;10.086;2022-08-25T00:35:49;9.38;;;3.72;;
68825;SDS011;55841;53.392;10.086;2022-08-25T00:38:15;9.57;;;3.92;;
68825;SDS011;55841;53.392;10.086;2022-08-25T00:40:40;10.50;;;3.88;;
68825;SDS011;55841;53.392;10.086;2022-08-25T00:43:07;11.80;;;3.53;;
68825;SDS011;55841;53.392;10.086;2022-08-25T00:45:33;9.98;;;3.75;;
68825;SDS011;55841;53.392;10.086;2022-08-25T00:47:59;10.20;;;3.80;;
68825;SDS011;55841;53.392;10.086;2022-08-25T00:50:26;10.40;;;3.95;;
68825;SDS011;55841;53.392;10.086;2022-08-25T00:52:53;11.10;;;4.07;;
68825;SDS011;55841;53.392;10.086;2022-08-25T00:55:25;10.63;;;3.70;;
68825;SDS011;55841;53.392;10.086;2022-08-25T01:00:25;11.52;;;4.03;;
68825;SDS011;55841;53.392;10.086;2022-08-25T01:02:53;11.18;;;4.20;;
68825;SDS011;55841;53.392;10.086;2022-08-25T01:05:19;13.98;;;3.83;;
68825;SDS011;55841;53.392;10.086;2022-08-25T01:07:45;13.43;;;4.03;;
68825;SDS011;55841;53.392;10.086;2022-08-25T01:10:11;10.50;;;3.95;;
68825;SDS011;55841;53.392;10.086;2022-08-25T01:12:37;11.63;;;4.53;;
68825;SDS011;55841;53.392;10.086;2022-08-25T01:15:04;9.30;;;3.72;;
68825;SDS011;55841;53.392;10.086;2022-08-25T01:17:33;11.23;;;3.92;;
68825;SDS011;55841;53.392;10.086;2022-08-25T01:20:16;11.75;;;4.05;;
68825;SDS011;55841;53.392;10.086;2022-08-25T01:22:43;9.95;;;4.07;;
68825;SDS011;55841;53.392;10.086;2022-08-25T01:28:00;9.98;;;4.10;;
68825;SDS011;55841;53.392;10.086;2022-08-25T01:30:27;11.30;;;4.18;;
68825;SDS011;55841;53.392;10.086;2022-08-25T01:32:52;10.07;;;4.32;;
68825;SDS011;55841;53.392;10.086;2022-08-25T01:35:18;11.70;;;4.57;;
68825;SDS011;55841;53.392;10.086;2022-08-25T01:37:43;10.15;;;4.05;;
68825;SDS011;55841;53.392;10.086;2022-08-25T01:40:09;9.95;;;4.20;;
68825;SDS011;55841;53.392;10.086;2022-08-25T01:45:19;11.60;;;4.40;;
68825;SDS011;55841;53.392;10.086;2022-08-25T01:47:45;11.45;;;3.97;;
68825;SDS011;55841;53.392;10.086;2022-08-25T01:50:11;11.18;;;3.85;;
68825;SDS011;55841;53.392;10.086;2022-08-25T01:52:44;10.45;;;4.30;;
68825;SDS011;55841;53.392;10.086;2022-08-25T01:55:22;11.38;;;4.18;;
68825;SDS011;55841;53.392;10.086;2022-08-25T01:57:48;11.48;;;3.92;;
68825;SDS011;55841;53.392;10.086;2022-08-25T02:00:14;10.50;;;4.10;;
68825;SDS011;55841;53.392;10.086;2022-08-25T02:02:41;9.60;;;3.78;;
68825;SDS011;55841;53.392;10.086;2022-08-25T02:05:07;11.25;;;4.28;;
68825;SDS011;55841;53.392;10.086;2022-08-25T02:07:35;13.00;;;4.63;;
68825;SDS011;55841;53.392;10.086;2022-08-25T02:10:01;11.18;;;4.75;;
68825;SDS011;55841;53.392;10.086;2022-08-25T02:12:29;11.05;;;4.35;;
68825;SDS011;55841;53.392;10.086;2022-08-25T02:14:56;10.57;;;4.25;;
68825;SDS011;55841;53.392;10.086;2022-08-25T02:19:47;11.85;;;4.43;;
68825;SDS011;55841;53.392;10.086;2022-08-25T02:22:13;12.82;;;4.55;;
68825;SDS011;55841;53.392;10.086;2022-08-25T02:24:38;11.10;;;3.90;;
68825;SDS011;55841;53.392;10.086;2022-08-25T02:27:04;11.73;;;4.25;;
68825;SDS011;55841;53.392;10.086;2022-08-25T02:29:30;12.13;;;4.20;;
68825;SDS011;55841;53.392;10.086;2022-08-25T02:31:55;11.32;;;3.80;;
68825;SDS011;55841;53.392;10.086;2022-08-25T02:34:24;11.02;;;3.80;;
68825;SDS011;55841;53.392;10.086;2022-08-25T02:36:50;10.63;;;4.03;;
68825;SDS011;55841;53.392;10.086;2022-08-25T02:39:15;9.13;;;3.60;;
68825;SDS011;55841;53.392;10.086;2022-08-25T02:41:41;12.23;;;4.22;;
68825;SDS011;55841;53.392;10.086;2022-08-25T02:44:06;12.77;;;4.55;;
68825;SDS011;55841;53.392;10.086;2022-08-25T02:46:33;11.55;;;4.03;;
68825;SDS011;55841;53.392;10.086;2022-08-25T02:48:59;12.18;;;4.47;;
68825;SDS011;55841;53.392;10.086;2022-08-25T02:53:51;10.02;;;4.32;;
68825;SDS011;55841;53.392;10.086;2022-08-25T02:56:17;11.68;;;4.28;;
68825;SDS011;55841;53.392;10.086;2022-08-25T02:58:43;10.82;;;4.13;;
68825;SDS011;55841;53.392;10.086;2022-08-25T03:01:09;11.25;;;4.63;;
68825;SDS011;55841;53.392;10.086;2022-08-25T03:03:35;11.93;;;4.10;;
68825;SDS011;55841;53.392;10.086;2022-08-25T03:06:01;11.05;;;4.60;;
68825;SDS011;55841;53.392;10.086;2022-08-25T03:08:27;14.65;;;4.80;;
68825;SDS011;55841;53.392;10.086;2022-08-25T03:10:53;10.35;;;4.05;;
68825;SDS011;55841;53.392;10.086;2022-08-25T03:13:19;11.95;;;4.03;;
68825;SDS011;55841;53.392;10.086;2022-08-25T03:15:44;12.55;;;4.13;;
68825;SDS011;55841;53.392;10.086;2022-08-25T03:18:10;12.07;;;4.07;;
68825;SDS011;55841;53.392;10.086;2022-08-25T03:20:36;13.07;;;4.50;;
68825;SDS011;55841;53.392;10.086;2022-08-25T03:23:02;13.13;;;4.40;;
68825;SDS011;55841;53.392;10.086;2022-08-25T03:25:28;11.00;;;4.40;;
68825;SDS011;55841;53.392;10.086;2022-08-25T03:27:54;12.07;;;4.10;;
68825;SDS011;55841;53.392;10.086;2022-08-25T03:30:20;8.63;;;3.63;;
68825;SDS011;55841;53.392;10.086;2022-08-25T03:32:45;11.05;;;4.18;;
68825;SDS011;55841;53.392;10.086;2022-08-25T03:35:11;10.13;;;4.18;;
68825;SDS011;55841;53.392;10.086;2022-08-25T03:40:04;11.45;;;3.60;;
68825;SDS011;55841;53.392;10.086;2022-08-25T03:42:32;11.57;;;4.13;;
68825;SDS011;55841;53.392;10.086;2022-08-25T03:44:57;10.05;;;3.97;;
68825;SDS011;55841;53.392;10.086;2022-08-25T03:47:23;10.93;;;4.03;;
68825;SDS011;55841;53.392;10.086;2022-08-25T03:49:49;9.32;;;4.20;;
68825;SDS011;55841;53.392;10.086;2022-08-25T03:52:14;10.90;;;3.97;;
68825;SDS011;55841;53.392;10.086;2022-08-25T03:54:40;11.23;;;4.28;;
68825;SDS011;55841;53.392;10.086;2022-08-25T03:57:05;11.52;;;4.30;;
68825;SDS011;55841;53.392;10.086;2022-08-25T03:59:31;13.95;;;4.68;;
68825;SDS011;55841;53.392;10.086;2022-08-25T04:01:56;10.27;;;4.55;;
68825;SDS011;55841;53.392;10.086;2022-08-25T04:04:22;11.50;;;4.30;;
68825;SDS011;55841;53.392;10.086;2022-08-25T04:06:48;10.65;;;4.47;;
68825;SDS011;55841;53.392;10.086;2022-08-25T04:09:13;12.50;;;4.57;;
68825;SDS011;55841;53.392;10.086;2022-08-25T04:11:39;9.57;;;4.40;;
68825;SDS011;55841;53.392;10.086;2022-08-25T04:14:05;11.18;;;4.03;;
68825;SDS011;55841;53.392;10.086;2022-08-25T04:16:31;11.30;;;4.20;;
68825;SDS011;55841;53.392;10.086;2022-08-25T04:18:59;10.80;;;4.10;;
68825;SDS011;55841;53.392;10.086;2022-08-25T04:21:26;11.25;;;4.00;;
68825;SDS011;55841;53.392;10.086;2022-08-25T04:23:53;10.73;;;4.63;;
68825;SDS011;55841;53.392;10.086;2022-08-25T04:26:41;9.52;;;3.90;;
68825;SDS011;55841;53.392;10.086;2022-08-25T04:29:09;11.30;;;4.38;;
68825;SDS011;55841;53.392;10.086;2022-08-25T04:31:37;11.27;;;4.10;;
68825;SDS011;55841;53.392;10.086;2022-08-25T04:34:05;11.32;;;4.05;;
68825;SDS011;55841;53.392;10.086;2022-08-25T04:36:31;9.82;;;4.25;;
68825;SDS011;55841;53.392;10.086;2022-08-25T04:38:57;10.35;;;4.15;;
68825;SDS011;55841;53.392;10.086;2022-08-25T04:41:23;11.05;;;4.30;;
68825;SDS011;55841;53.392;10.086;2022-08-25T04:43:50;10.75;;;4.53;;
68825;SDS011;55841;53.392;10.086;2022-08-25T04:46:18;12.43;;;5.00;;
68825;SDS011;55841;53.392;10.086;2022-08-25T04:48:45;10.93;;;4.60;;
68825;SDS011;55841;53.392;10.086;2022-08-25T04:51:13;9.73;;;4.18;;
68825;SDS011;55841;53.392;10.086;2022-08-25T04:53:40;10.35;;;4.57;;
68825;SDS011;55841;53.392;10.086;2022-08-25T04:56:07;10.25;;;4.53;;
68825;SDS011;55841;53.392;10.086;2022-08-25T04:58:35;15.00;;;5.13;;
68825;SDS011;55841;53.392;10.086;2022-08-25T05:03:31;12.27;;;4.38;;
68825;SDS011;55841;53.392;10.086;2022-08-25T05:05:57;14.98;;;4.95;;
68825;SDS011;55841;53.392;10.086;2022-08-25T05:08:22;12.48;;;4.40;;
68825;SDS011;55841;53.392;10.086;2022-08-25T05:10:48;12.55;;;5.10;;
68825;SDS011;55841;53.392;10.086;2022-08-25T05:13:14;10.52;;;4.20;;
68825;SDS011;55841;53.392;10.086;2022-08-25T05:15:40;11.75;;;4.47;;
68825;SDS011;55841;53.392;10.086;2022-08-25T05:18:05;13.57;;;4.82;;
68825;SDS011;55841;53.392;10.086;2022-08-25T05:20:31;11.88;;;4.60;;
68825;SDS011;55841;53.392;10.086;2022-08-25T05:22:59;11.90;;;4.00;;
68825;SDS011;55841;53.392;10.086;2022-08-25T05:25:25;10.38;;;4.20;;
68825;SDS011;55841;53.392;10.086;2022-08-25T05:27:50;9.85;;;3.70;;
68825;SDS011;55841;53.392;10.086;2022-08-25T05:30:16;10.18;;;3.40;;
68825;SDS011;55841;53.392;10.086;2022-08-25T05:32:41;9.73;;;3.83;;
68825;SDS011;55841;53.392;10.086;2022-08-25T05:35:07;10.63;;;4.18;;
68825;SDS011;55841;53.392;10.086;2022-08-25T05:37:33;13.35;;;4.40;;
68825;SDS011;55841;53.392;10.086;2022-08-25T05:39:59;10.73;;;4.18;;
68825;SDS011;55841;53.392;10.086;2022-08-25T05:42:24;12.15;;;3.78;;
68825;SDS011;55841;53.392;10.086;2022-08-25T05:50:34;12.23;;;4.40;;
68825;SDS011;55841;53.392;10.086;2022-08-25T05:53:06;13.93;;;4.78;;
68825;SDS011;55841;53.392;10.086;2022-08-25T05:55:44;18.73;;;5.70;;
68825;SDS011;55841;53.392;10.086;2022-08-25T05:58:14;16.38;;;5.78;;
68825;SDS011;55841;53.392;10.086;2022-08-25T07:06:12;17.58;;;8.05;;
68825;SDS011;55841;53.392;10.086;2022-08-25T07:08:37;17.77;;;8.45;;
68825;SDS011;55841;53.392;10.086;2022-08-25T07:14:32;17.48;;;8.60;;
68825;SDS011;55841;53.392;10.086;2022-08-25T08:37:42;17.30;;;9.15;;
68825;SDS011;55841;53.392;10.086;2022-08-25T08:40:07;18.33;;;8.77;;
68825;SDS011;55841;53.392;10.086;2022-08-25T09:30:59;16.40;;;9.07;;
68825;SDS011;55841;53.392;10.086;2022-08-25T09:33:42;18.63;;;8.75;;
68825;SDS011;55841;53.392;10.086;2022-08-25T09:46:15;16.15;;;7.57;;
68825;SDS011;55841;53.392;10.086;2022-08-25T09:48:49;13.43;;;6.80;;
68825;SDS011;55841;53.392;10.086;2022-08-25T09:51:34;13.52;;;7.50;;
68825;SDS011;55841;53.392;10.086;2022-08-25T09:54:04;18.17;;;7.70;;
68825;SDS011;55841;53.392;10.086;2022-08-25T09:56:55;14.15;;;7.43;;
68825;SDS011;55841;53.392;10.086;2022-08-25T09:59:48;13.15;;;6.28;;
68825;SDS011;55841;53.392;10.086;2022-08-25T10:02:27;13.77;;;7.10;;
68825;SDS011;55841;53.392;10.086;2022-08-25T10:04:55;14.95;;;7.70;;
68825;SDS011;55841;53.392;10.086;2022-08-25T10:07:31;13.77;;;6.32;;
68825;SDS011;55841;53.392;10.086;2022-08-25T10:55:16;14.45;;;5.30;;
68825;SDS011;55841;53.392;10.086;2022-08-25T11:10:56;13.98;;;5.47;;
68825;SDS011;55841;53.392;10.086;2022-08-25T11:17:13;12.50;;;5.38;;
68825;SDS011;55841;53.392;10.086;2022-08-25T11:19:47;11.77;;;5.10;;
68825;SDS011;55841;53.392;10.086;2022-08-25T11:29:24;11.45;;;4.68;;
68825;SDS011;55841;53.392;10.086;2022-08-25T11:31:53;12.95;;;5.32;;
68825;SDS011;55841;53.392;10.086;2022-08-25T11:34:20;11.52;;;4.88;;
68825;SDS011;55841;53.392;10.086;2022-08-25T11:36:51;12.50;;;4.60;;
68825;SDS011;55841;53.392;10.086;2022-08-25T11:39:24;12.98;;;4.65;;
68825;SDS011;55841;53.392;10.086;2022-08-25T12:35:59;16.60;;;4.53;;
68825;SDS011;55841;53.392;10.086;2022-08-25T12:41:09;11.48;;;4.53;;
68825;SDS011;55841;53.392;10.086;2022-08-25T12:43:37;9.63;;;3.97;;
68825;SDS011;55841;53.392;10.086;2022-08-25T12:48:55;10.15;;;3.90;;
68825;SDS011;55841;53.392;10.086;2022-08-25T12:51:49;9.57;;;3.70;;
68825;SDS011;55841;53.392;10.086;2022-08-25T12:57:18;14.68;;;4.45;;
68825;SDS011;55841;53.392;10.086;2022-08-25T12:59:56;10.95;;;4.28;;
68825;SDS011;55841;53.392;10.086;2022-08-25T14:16:37;8.98;;;3.65;;
68825;SDS011;55841;53.392;10.086;2022-08-25T14:19:14;9.70;;;4.00;;
68825;SDS011;55841;53.392;10.086;2022-08-25T14:21:42;9.80;;;3.63;;
68825;SDS011;55841;53.392;10.086;2022-08-25T14:24:08;10.95;;;3.60;;
68825;SDS011;55841;53.392;10.086;2022-08-25T14:26:38;10.90;;;3.47;;
68825;SDS011;55841;53.392;10.086;2022-08-25T14:29:04;9.05;;;3.28;;
68825;SDS011;55841;53.392;10.086;2022-08-25T14:31:30;9.75;;;3.50;;
68825;SDS011;55841;53.392;10.086;2022-08-25T14:34:04;12.52;;;4.03;;
68825;SDS011;55841;53.392;10.086;2022-08-25T14:36:41;12.70;;;4.28;;
68825;SDS011;55841;53.392;10.086;2022-08-25T14:39:08;8.20;;;3.53;;
68825;SDS011;55841;53.392;10.086;2022-08-25T14:41:35;10.18;;;3.65;;
68825;SDS011;55841;53.392;10.086;2022-08-25T14:44:02;9.70;;;3.75;;
68825;SDS011;55841;53.392;10.086;2022-08-25T14:46:29;10.38;;;3.38;;
68825;SDS011;55841;53.392;10.086;2022-08-25T14:49:00;10.07;;;3.63;;
68825;SDS011;55841;53.392;10.086;2022-08-25T14:51:29;10.93;;;3.67;;
68825;SDS011;55841;53.392;10.086;2022-08-25T14:54:00;9.32;;;3.85;;
68825;SDS011;55841;53.392;10.086;2022-08-25T14:56:28;10.10;;;4.32;;
68825;SDS011;55841;53.392;10.086;2022-08-25T14:58:54;11.30;;;3.70;;
68825;SDS011;55841;53.392;10.086;2022-08-25T15:01:21;12.90;;;3.88;;
68825;SDS011;55841;53.392;10.086;2022-08-25T15:03:49;12.05;;;3.78;;
68825;SDS011;55841;53.392;10.086;2022-08-25T15:06:19;10.80;;;3.80;;
68825;SDS011;55841;53.392;10.086;2022-08-25T15:08:44;11.02;;;3.60;;
68825;SDS011;55841;53.392;10.086;2022-08-25T15:11:10;8.98;;;3.20;;
68825;SDS011;55841;53.392;10.086;2022-08-25T15:13:35;11.18;;;3.70;;
68825;SDS011;55841;53.392;10.086;2022-08-25T15:16:01;13.45;;;3.60;;
68825;SDS011;55841;53.392;10.086;2022-08-25T15:18:27;9.88;;;3.60;;
68825;SDS011;55841;53.392;10.086;2022-08-25T15:20:53;10.68;;;3.75;;
68825;SDS011;55841;53.392;10.086;2022-08-25T15:23:18;8.88;;;3.50;;
68825;SDS011;55841;53.392;10.086;2022-08-25T15:25:45;10.38;;;3.80;;
68825;SDS011;55841;53.392;10.086;2022-08-25T15:28:12;10.27;;;3.63;;
68825;SDS011;55841;53.392;10.086;2022-08-25T15:30:39;10.65;;;3.55;;
68825;SDS011;55841;53.392;10.086;2022-08-25T15:33:04;9.32;;;3.50;;
68825;SDS011;55841;53.392;10.086;2022-08-25T15:35:30;12.57;;;3.85;;
68825;SDS011;55841;53.392;10.086;2022-08-25T15:37:56;10.43;;;3.78;;
68825;SDS011;55841;53.392;10.086;2022-08-25T15:40:21;9.70;;;3.40;;
68825;SDS011;55841;53.392;10.086;2022-08-25T15:42:47;9.68;;;3.70;;
68825;SDS011;55841;53.392;10.086;2022-08-25T15:45:13;10.38;;;3.92;;
68825;SDS011;55841;53.392;10.086;2022-08-25T15:47:38;15.70;;;3.95;;
68825;SDS011;55841;53.392;10.086;2022-08-25T15:50:08;12.40;;;3.72;;
68825;SDS011;55841;53.392;10.086;2022-08-25T15:52:36;14.07;;;3.97;;
68825;SDS011;55841;53.392;10.086;2022-08-25T15:55:04;10.13;;;3.55;;
68825;SDS011;55841;53.392;10.086;2022-08-25T15:57:31;9.27;;;3.40;;
68825;SDS011;55841;53.392;10.086;2022-08-25T15:59:57;12.70;;;3.88;;
68825;SDS011;55841;53.392;10.086;2022-08-25T16:02:22;10.27;;;3.85;;
68825;SDS011;55841;53.392;10.086;2022-08-25T16:04:49;12.13;;;3.63;;
68825;SDS011;55841;53.392;10.086;2022-08-25T16:07:14;11.70;;;4.03;;
68825;SDS011;55841;53.392;10.086;2022-08-25T16:09:40;10.20;;;3.50;;
68825;SDS011;55841;53.392;10.086;2022-08-25T16:12:05;13.32;;;3.75;;
68825;SDS011;55841;53.392;10.086;2022-08-25T16:14:31;10.07;;;3.50;;
68825;SDS011;55841;53.392;10.086;2022-08-25T16:16:57;12.95;;;4.03;;
68825;SDS011;55841;53.392;10.086;2022-08-25T16:19:22;11.45;;;3.80;;
68825;SDS011;55841;53.392;10.086;2022-08-25T16:21:48;11.70;;;4.25;;
68825;SDS011;55841;53.392;10.086;2022-08-25T16:24:16;11.15;;;4.18;;
68825;SDS011;55841;53.392;10.086;2022-08-25T16:26:42;10.32;;;3.88;;
68825;SDS011;55841;53.392;10.086;2022-08-25T16:29:08;11.90;;;3.92;;
68825;SDS011;55841;53.392;10.086;2022-08-25T16:31:34;10.65;;;4.00;;
68825;SDS011;55841;53.392;10.086;2022-08-25T16:34:00;10.32;;;4.07;;
68825;SDS011;55841;53.392;10.086;2022-08-25T16:36:26;11.30;;;3.95;;
68825;SDS011;55841;53.392;10.086;2022-08-25T16:38:52;11.52;;;3.88;;
68825;SDS011;55841;53.392;10.086;2022-08-25T16:41:21;10.65;;;3.65;;
68825;SDS011;55841;53.392;10.086;2022-08-25T16:46:17;11.70;;;3.50;;
68825;SDS011;55841;53.392;10.086;2022-08-25T16:48:45;10.88;;;3.70;;
68825;SDS011;55841;53.392;10.086;2022-08-25T16:51:13;10.45;;;3.80;;
68825;SDS011;55841;53.392;10.086;2022-08-25T16:53:59;10.88;;;3.78;;
68825;SDS011;55841;53.392;10.086;2022-08-25T16:56:50;12.48;;;4.13;;
68825;SDS011;55841;53.392;10.086;2022-08-25T16:59:16;9.45;;;3.80;;
68825;SDS011;55841;53.392;10.086;2022-08-25T17:01:42;11.05;;;3.90;;
68825;SDS011;55841;53.392;10.086;2022-08-25T17:04:09;9.88;;;3.90;;
68825;SDS011;55841;53.392;10.086;2022-08-25T17:06:40;10.73;;;3.67;;
68825;SDS011;55841;53.392;10.086;2022-08-25T17:09:16;11.90;;;3.75;;
68825;SDS011;55841;53.392;10.086;2022-08-25T17:11:43;12.88;;;4.20;;
68825;SDS011;55841;53.392;10.086;2022-08-25T17:14:11;11.23;;;3.70;;
68825;SDS011;55841;53.392;10.086;2022-08-25T17:16:39;13.30;;;4.15;;
68825;SDS011;55841;53.392;10.086;2022-08-25T17:19:05;12.55;;;4.20;;
68825;SDS011;55841;53.392;10.086;2022-08-25T17:21:34;12.35;;;4.07;;
68825;SDS011;55841;53.392;10.086;2022-08-25T17:24:02;12.23;;;3.90;;
68825;SDS011;55841;53.392;10.086;2022-08-25T17:26:29;9.38;;;3.75;;
68825;SDS011;55841;53.392;10.086;2022-08-25T17:29:00;10.07;;;3.90;;
68825;SDS011;55841;53.392;10.086;2022-08-25T17:31:26;11.63;;;3.42;;
68825;SDS011;55841;53.392;10.086;2022-08-25T17:33:54;10.68;;;3.80;;
68825;SDS011;55841;53.392;10.086;2022-08-25T17:36:23;15.20;;;4.03;;
68825;SDS011;55841;53.392;10.086;2022-08-25T17:38:49;11.77;;;3.88;;
68825;SDS011;55841;53.392;10.086;2022-08-25T17:41:16;12.23;;;4.38;;
68825;SDS011;55841;53.392;10.086;2022-08-25T17:43:43;17.48;;;4.85;;
68825;SDS011;55841;53.392;10.086;2022-08-25T17:46:09;12.80;;;4.10;;
68825;SDS011;55841;53.392;10.086;2022-08-25T17:48:36;14.45;;;4.47;;
68825;SDS011;55841;53.392;10.086;2022-08-25T17:51:03;13.98;;;4.25;;
68825;SDS011;55841;53.392;10.086;2022-08-25T17:53:30;10.68;;;4.00;;
68825;SDS011;55841;53.392;10.086;2022-08-25T17:55:58;13.25;;;4.43;;
68825;SDS011;55841;53.392;10.086;2022-08-25T17:58:30;10.10;;;4.35;;
68825;SDS011;55841;53.392;10.086;2022-08-25T18:00:56;12.70;;;4.63;;
68825;SDS011;55841;53.392;10.086;2022-08-25T18:03:22;10.20;;;4.05;;
68825;SDS011;55841;53.392;10.086;2022-08-25T18:05:48;15.40;;;5.05;;
68825;SDS011;55841;53.392;10.086;2022-08-25T18:08:14;12.38;;;4.30;;
68825;SDS011;55841;53.392;10.086;2022-08-25T18:10:40;11.55;;;4.15;;
68825;SDS011;55841;53.392;10.086;2022-08-25T18:13:06;11.05;;;4.00;;
68825;SDS011;55841;53.392;10.086;2022-08-25T18:15:32;14.25;;;4.63;;
68825;SDS011;55841;53.392;10.086;2022-08-25T18:17:58;11.95;;;5.15;;
68825;SDS011;55841;53.392;10.086;2022-08-25T18:20:24;26.38;;;5.53;;
68825;SDS011;55841;53.392;10.086;2022-08-25T18:22:50;13.27;;;4.55;;
68825;SDS011;55841;53.392;10.086;2022-08-25T18:25:18;14.18;;;4.40;;
68825;SDS011;55841;53.392;10.086;2022-08-25T18:27:44;29.77;;;6.40;;
68825;SDS011;55841;53.392;10.086;2022-08-25T18:30:10;21.30;;;5.30;;
68825;SDS011;55841;53.392;10.086;2022-08-25T18:32:36;13.95;;;4.78;;
68825;SDS011;55841;53.392;10.086;2022-08-25T18:35:05;12.07;;;4.47;;
68825;SDS011;55841;53.392;10.086;2022-08-25T18:54:06;11.50;;;4.45;;
68825;SDS011;55841;53.392;10.086;2022-08-25T18:56:44;11.27;;;4.25;;
68825;SDS011;55841;53.392;10.086;2022-08-25T18:59:15;10.98;;;4.35;;
68825;SDS011;55841;53.392;10.086;2022-08-25T19:01:47;13.40;;;4.72;;
68825;SDS011;55841;53.392;10.086;2022-08-25T19:04:15;13.07;;;4.55;;
68825;SDS011;55841;53.392;10.086;2022-08-25T19:06:44;11.80;;;4.20;;
68825;SDS011;55841;53.392;10.086;2022-08-25T19:09:10;11.15;;;4.10;;
68825;SDS011;55841;53.392;10.086;2022-08-25T19:11:39;12.23;;;4.40;;
68825;SDS011;55841;53.392;10.086;2022-08-25T19:14:07;12.88;;;4.32;;
68825;SDS011;55841;53.392;10.086;2022-08-25T19:16:39;11.00;;;4.22;;
68825;SDS011;55841;53.392;10.086;2022-08-25T19:19:09;11.45;;;4.95;;
68825;SDS011;55841;53.392;10.086;2022-08-25T19:21:43;15.40;;;5.03;;
68825;SDS011;55841;53.392;10.086;2022-08-25T19:24:17;16.00;;;4.80;;
68825;SDS011;55841;53.392;10.086;2022-08-25T19:26:59;11.30;;;4.40;;
68825;SDS011;55841;53.392;10.086;2022-08-25T19:29:55;10.35;;;4.43;;
68825;SDS011;55841;53.392;10.086;2022-08-25T19:32:32;10.80;;;4.60;;
68825;SDS011;55841;53.392;10.086;2022-08-25T19:35:01;12.13;;;5.00;;
68825;SDS011;55841;53.392;10.086;2022-08-25T19:37:27;10.70;;;4.97;;
68825;SDS011;55841;53.392;10.086;2022-08-25T19:39:53;12.10;;;4.90;;
68825;SDS011;55841;53.392;10.086;2022-08-25T19:42:22;10.98;;;5.18;;
68825;SDS011;55841;53.392;10.086;2022-08-25T19:44:54;12.48;;;5.00;;
68825;SDS011;55841;53.392;10.086;2022-08-25T19:47:23;11.18;;;5.40;;
68825;SDS011;55841;53.392;10.086;2022-08-25T19:49:49;14.15;;;5.00;;
68825;SDS011;55841;53.392;10.086;2022-08-25T19:52:15;11.95;;;4.75;;
68825;SDS011;55841;53.392;10.086;2022-08-25T19:54:42;12.48;;;5.03;;
68825;SDS011;55841;53.392;10.086;2022-08-25T19:57:10;11.65;;;4.55;;
68825;SDS011;55841;53.392;10.086;2022-08-25T19:59:43;12.93;;;4.90;;
68825;SDS011;55841;53.392;10.086;2022-08-25T20:02:26;15.82;;;5.10;;
68825;SDS011;55841;53.392;10.086;2022-08-25T20:05:03;11.90;;;4.82;;
68825;SDS011;55841;53.392;10.086;2022-08-25T20:07:33;13.77;;;4.32;;
68825;SDS011;55841;53.392;10.086;2022-08-25T20:09:59;11.32;;;4.60;;
68825;SDS011;55841;53.392;10.086;2022-08-25T20:12:25;11.93;;;4.97;;
68825;SDS011;55841;53.392;10.086;2022-08-25T20:14:52;11.23;;;5.05;;
68825;SDS011;55841;53.392;10.086;2022-08-25T20:17:20;12.43;;;4.22;;
68825;SDS011;55841;53.392;10.086;2022-08-25T20:19:46;12.20;;;5.20;;
68825;SDS011;55841;53.392;10.086;2022-08-25T20:24:43;14.35;;;4.70;;
68825;SDS011;55841;53.392;10.086;2022-08-25T20:27:09;13.07;;;5.00;;
68825;SDS011;55841;53.392;10.086;2022-08-25T20:29:35;12.48;;;4.65;;
68825;SDS011;55841;53.392;10.086;2022-08-25T20:32:03;12.00;;;4.47;;
68825;SDS011;55841;53.392;10.086;2022-08-25T20:36:57;12.05;;;4.78;;
68825;SDS011;55841;53.392;10.086;2022-08-25T20:39:26;12.02;;;4.80;;
68825;SDS011;55841;53.392;10.086;2022-08-25T20:44:27;10.43;;;4.45;;
68825;SDS011;55841;53.392;10.086;2022-08-25T20:46:53;11.82;;;4.82;;
68825;SDS011;55841;53.392;10.086;2022-08-25T20:49:19;12.80;;;4.95;;
68825;SDS011;55841;53.392;10.086;2022-08-25T20:54:13;12.32;;;4.80;;
68825;SDS011;55841;53.392;10.086;2022-08-25T20:56:42;10.13;;;4.38;;
68825;SDS011;55841;53.392;10.086;2022-08-25T20:59:07;12.90;;;4.30;;
68825;SDS011;55841;53.392;10.086;2022-08-25T21:01:44;12.43;;;4.80;;
68825;SDS011;55841;53.392;10.086;2022-08-25T21:04:13;11.20;;;4.68;;
68825;SDS011;55841;53.392;10.086;2022-08-25T21:06:41;11.73;;;4.72;;
68825;SDS011;55841;53.392;10.086;2022-08-25T21:09:09;14.73;;;5.30;;
68825;SDS011;55841;53.392;10.086;2022-08-25T21:11:36;12.18;;;4.85;;
68825;SDS011;55841;53.392;10.086;2022-08-25T21:16:28;14.25;;;5.47;;
68825;SDS011;55841;53.392;10.086;2022-08-25T21:21:26;10.20;;;4.07;;
68825;SDS011;55841;53.392;10.086;2022-08-25T21:26:19;11.82;;;4.97;;
68825;SDS011;55841;53.392;10.086;2022-08-25T21:31:21;12.73;;;4.78;;
68825;SDS011;55841;53.392;10.086;2022-08-25T21:33:50;12.38;;;4.72;;
68825;SDS011;55841;53.392;10.086;2022-08-25T21:36:35;9.75;;;4.45;;
68825;SDS011;55841;53.392;10.086;2022-08-25T21:39:07;12.27;;;5.13;;
68825;SDS011;55841;53.392;10.086;2022-08-25T21:41:40;10.95;;;4.60;;
68825;SDS011;55841;53.392;10.086;2022-08-25T21:44:06;13.93;;;4.80;;
68825;SDS011;55841;53.392;10.086;2022-08-25T21:46:33;12.80;;;5.25;;
68825;SDS011;55841;53.392;10.086;2022-08-25T21:49:10;12.10;;;4.50;;
68825;SDS011;55841;53.392;10.086;2022-08-25T21:51:37;11.52;;;4.35;;
68825;SDS011;55841;53.392;10.086;2022-08-25T21:54:06;13.38;;;5.05;;
68825;SDS011;55841;53.392;10.086;2022-08-25T21:56:41;11.25;;;4.95;;
68825;SDS011;55841;53.392;10.086;2022-08-25T21:59:10;14.95;;;5.97;;
68825;SDS011;55841;53.392;10.086;2022-08-25T22:01:38;11.88;;;5.18;;
68825;SDS011;55841;53.392;10.086;2022-08-25T22:04:05;13.93;;;5.05;;
68825;SDS011;55841;53.392;10.086;2022-08-25T22:06:39;14.70;;;4.95;;
68825;SDS011;55841;53.392;10.086;2022-08-25T22:09:13;10.95;;;5.18;;
68825;SDS011;55841;53.392;10.086;2022-08-25T22:11:40;13.57;;;5.78;;
68825;SDS011;55841;53.392;10.086;2022-08-25T22:14:07;12.05;;;4.82;;
68825;SDS011;55841;53.392;10.086;2022-08-25T22:16:35;12.07;;;4.95;;
68825;SDS011;55841;53.392;10.086;2022-08-25T22:19:02;12.80;;;5.43;;
68825;SDS011;55841;53.392;10.086;2022-08-25T22:21:34;13.48;;;5.65;;
68825;SDS011;55841;53.392;10.086;2022-08-25T22:24:00;11.93;;;5.00;;
68825;SDS011;55841;53.392;10.086;2022-08-25T22:29:01;13.15;;;5.18;;
68825;SDS011;55841;53.392;10.086;2022-08-25T22:31:28;13.00;;;5.55;;